sensor_id;sensor_type;location;lat;lon;timestamp;pressure;altitude;pressure_sealevel;temperature;humidity
39954;BME280;25631;51.516;-0.470;2023-01-30T00:02:25;101933.60;;;4.45;46.11
39954;BME280;25631;51.516;-0.470;2023-01-30T00:05:02;101937.75;;;4.49;46.11
39954;BME280;25631;51.516;-0.470;2023-01-30T00:07:38;101939.02;;;4.48;46.03
39954;BME280;25631;51.516;-0.470;2023-01-30T00:10:16;101939.51;;;4.47;46.23
39954;BME280;25631;51.516;-0.470;2023-01-30T00:12:57;101947.11;;;4.43;46.13
39954;BME280;25631;51.516;-0.470;2023-01-30T00:15:34;101951.60;;;4.48;46.23
39954;BME280;25631;51.516;-0.470;2023-01-30T00:18:11;101945.71;;;4.66;46.07
39954;BME280;25631;51.516;-0.470;2023-01-30T00:20:47;101950.66;;;4.74;46.13
39954;BME280;25631;51.516;-0.470;2023-01-30T00:23:25;101950.27;;;4.44;46.28
39954;BME280;25631;51.516;-0.470;2023-01-30T00:26:07;101953.21;;;4.68;46.14
39954;BME280;25631;51.516;-0.470;2023-01-30T00:28:44;101944.03;;;4.76;46.11
39954;BME280;25631;51.516;-0.470;2023-01-30T00:31:20;101939.72;;;4.79;46.24
39954;BME280;25631;51.516;-0.470;2023-01-30T00:33:57;101933.13;;;4.64;46.16
39954;BME280;25631;51.516;-0.470;2023-01-30T00:36:34;101934.26;;;4.66;46.24
39954;BME280;25631;51.516;-0.470;2023-01-30T00:39:10;101939.62;;;4.67;46.04
39954;BME280;25631;51.516;-0.470;2023-01-30T00:41:46;101943.05;;;4.62;46.07
39954;BME280;25631;51.516;-0.470;2023-01-30T00:44:23;101946.25;;;4.66;46.14
39954;BME280;25631;51.516;-0.470;2023-01-30T00:47:00;101942.95;;;4.39;46.32
39954;BME280;25631;51.516;-0.470;2023-01-30T00:49:37;101942.96;;;4.51;46.16
39954;BME280;25631;51.516;-0.470;2023-01-30T00:52:14;101942.76;;;4.48;46.15
39954;BME280;25631;51.516;-0.470;2023-01-30T00:54:50;101939.97;;;4.84;46.02
39954;BME280;25631;51.516;-0.470;2023-01-30T00:57:27;101942.49;;;4.64;46.21
39954;BME280;25631;51.516;-0.470;2023-01-30T01:00:05;101942.57;;;5.02;46.14
39954;BME280;25631;51.516;-0.470;2023-01-30T01:02:41;101946.32;;;4.94;46.02
39954;BME280;25631;51.516;-0.470;2023-01-30T01:05:18;101944.51;;;4.82;46.20
39954;BME280;25631;51.516;-0.470;2023-01-30T01:07:55;101940.04;;;4.86;46.08
39954;BME280;25631;51.516;-0.470;2023-01-30T01:10:32;101925.22;;;4.82;46.20
39954;BME280;25631;51.516;-0.470;2023-01-30T01:13:09;101920.10;;;4.85;46.06
39954;BME280;25631;51.516;-0.470;2023-01-30T01:15:45;101918.95;;;4.94;45.96
39954;BME280;25631;51.516;-0.470;2023-01-30T01:18:22;101917.67;;;4.79;46.07
39954;BME280;25631;51.516;-0.470;2023-01-30T01:20:59;101919.80;;;5.05;46.04
39954;BME280;25631;51.516;-0.470;2023-01-30T01:23:35;101916.15;;;4.94;46.10
39954;BME280;25631;51.516;-0.470;2023-01-30T01:26:12;101909.59;;;5.16;46.13
39954;BME280;25631;51.516;-0.470;2023-01-30T01:28:49;101906.15;;;5.23;46.04
39954;BME280;25631;51.516;-0.470;2023-01-30T01:31:29;101904.77;;;5.09;46.12
39954;BME280;25631;51.516;-0.470;2023-01-30T01:34:06;101901.35;;;5.13;46.09
39954;BME280;25631;51.516;-0.470;2023-01-30T01:36:42;101899.48;;;4.88;46.24
39954;BME280;25631;51.516;-0.470;2023-01-30T01:39:19;101890.60;;;5.17;46.27
39954;BME280;25631;51.516;-0.470;2023-01-30T01:41:56;101871.53;;;4.84;46.48
39954;BME280;25631;51.516;-0.470;2023-01-30T01:44:58;101864.70;;;4.94;46.16
39954;BME280;25631;51.516;-0.470;2023-01-30T01:47:35;101866.60;;;4.67;46.07
39954;BME280;25631;51.516;-0.470;2023-01-30T01:50:17;101875.13;;;5.20;46.03
39954;BME280;25631;51.516;-0.470;2023-01-30T01:52:58;101873.65;;;5.19;46.00
39954;BME280;25631;51.516;-0.470;2023-01-30T01:55:37;101867.63;;;4.62;46.45
39954;BME280;25631;51.516;-0.470;2023-01-30T01:58:16;101860.34;;;5.07;46.29
39954;BME280;25631;51.516;-0.470;2023-01-30T02:00:57;101862.74;;;5.09;46.32
39954;BME280;25631;51.516;-0.470;2023-01-30T02:03:36;101865.39;;;4.80;46.22
39954;BME280;25631;51.516;-0.470;2023-01-30T02:06:15;101867.57;;;5.16;46.23
39954;BME280;25631;51.516;-0.470;2023-01-30T02:08:54;101870.01;;;5.31;46.24
39954;BME280;25631;51.516;-0.470;2023-01-30T02:11:40;101875.83;;;5.12;46.40
39954;BME280;25631;51.516;-0.470;2023-01-30T02:14:19;101872.18;;;5.03;46.35
39954;BME280;25631;51.516;-0.470;2023-01-30T02:16:57;101859.07;;;5.10;46.55
39954;BME280;25631;51.516;-0.470;2023-01-30T02:19:45;101858.14;;;5.24;46.44
39954;BME280;25631;51.516;-0.470;2023-01-30T02:22:42;101859.89;;;4.84;46.44
39954;BME280;25631;51.516;-0.470;2023-01-30T02:27:17;101866.30;;;5.32;46.46
39954;BME280;25631;51.516;-0.470;2023-01-30T02:30:32;101872.42;;;5.17;46.52
39954;BME280;25631;51.516;-0.470;2023-01-30T02:33:15;101869.32;;;5.29;46.40
39954;BME280;25631;51.516;-0.470;2023-01-30T02:35:58;101871.08;;;5.13;46.39
39954;BME280;25631;51.516;-0.470;2023-01-30T02:38:42;101871.03;;;5.39;46.40
39954;BME280;25631;51.516;-0.470;2023-01-30T02:41:26;101872.87;;;5.26;46.35
39954;BME280;25631;51.516;-0.470;2023-01-30T02:44:13;101870.91;;;5.13;46.73
39954;BME280;25631;51.516;-0.470;2023-01-30T02:46:54;101870.59;;;5.27;46.61
39954;BME280;25631;51.516;-0.470;2023-01-30T02:49:36;101870.87;;;5.22;46.60
39954;BME280;25631;51.516;-0.470;2023-01-30T02:52:15;101876.47;;;5.63;46.42
39954;BME280;25631;51.516;-0.470;2023-01-30T02:54:52;101881.11;;;5.57;46.59
39954;BME280;25631;51.516;-0.470;2023-01-30T02:57:28;101882.56;;;5.39;46.66
39954;BME280;25631;51.516;-0.470;2023-01-30T03:00:06;101886.12;;;5.25;46.77
39954;BME280;25631;51.516;-0.470;2023-01-30T03:03:00;101893.14;;;5.34;46.72
39954;BME280;25631;51.516;-0.470;2023-01-30T03:05:50;101896.02;;;5.42;46.73
39954;BME280;25631;51.516;-0.470;2023-01-30T03:08:33;101898.63;;;5.45;46.75
39954;BME280;25631;51.516;-0.470;2023-01-30T03:11:15;101895.02;;;5.63;46.50
39954;BME280;25631;51.516;-0.470;2023-01-30T03:13:57;101893.00;;;5.85;46.52
39954;BME280;25631;51.516;-0.470;2023-01-30T03:16:39;101896.77;;;5.67;46.60
39954;BME280;25631;51.516;-0.470;2023-01-30T03:19:18;101899.18;;;5.77;46.72
39954;BME280;25631;51.516;-0.470;2023-01-30T03:21:56;101902.50;;;5.70;46.86
39954;BME280;25631;51.516;-0.470;2023-01-30T03:24:32;101898.17;;;5.88;46.83
39954;BME280;25631;51.516;-0.470;2023-01-30T03:27:12;101900.70;;;5.81;46.92
39954;BME280;25631;51.516;-0.470;2023-01-30T03:29:48;101902.98;;;5.79;47.14
39954;BME280;25631;51.516;-0.470;2023-01-30T03:32:25;101906.92;;;5.79;47.23
39954;BME280;25631;51.516;-0.470;2023-01-30T03:35:01;101907.07;;;5.92;47.14
39954;BME280;25631;51.516;-0.470;2023-01-30T03:37:38;101905.27;;;6.22;46.96
39954;BME280;25631;51.516;-0.470;2023-01-30T03:40:16;101902.36;;;5.84;47.30
39954;BME280;25631;51.516;-0.470;2023-01-30T03:42:53;101901.82;;;6.13;47.29
39954;BME280;25631;51.516;-0.470;2023-01-30T03:45:29;101906.02;;;6.02;47.34
39954;BME280;25631;51.516;-0.470;2023-01-30T03:48:06;101911.20;;;5.91;47.37
39954;BME280;25631;51.516;-0.470;2023-01-30T03:50:42;101911.07;;;5.99;47.45
39954;BME280;25631;51.516;-0.470;2023-01-30T03:53:19;101912.54;;;6.14;47.48
39954;BME280;25631;51.516;-0.470;2023-01-30T03:55:55;101915.00;;;6.14;47.31
39954;BME280;25631;51.516;-0.470;2023-01-30T03:58:32;101910.27;;;6.10;47.50
39954;BME280;25631;51.516;-0.470;2023-01-30T04:01:08;101909.97;;;6.24;47.43
39954;BME280;25631;51.516;-0.470;2023-01-30T04:03:45;101914.57;;;6.08;47.50
39954;BME280;25631;51.516;-0.470;2023-01-30T04:06:22;101910.73;;;6.00;47.42
39954;BME280;25631;51.516;-0.470;2023-01-30T04:08:58;101914.28;;;6.20;47.71
39954;BME280;25631;51.516;-0.470;2023-01-30T04:11:35;101913.30;;;6.03;47.58
39954;BME280;25631;51.516;-0.470;2023-01-30T04:14:11;101919.68;;;5.99;47.53
39954;BME280;25631;51.516;-0.470;2023-01-30T04:16:48;101927.17;;;5.90;47.81
39954;BME280;25631;51.516;-0.470;2023-01-30T04:19:25;101927.33;;;5.95;47.53
39954;BME280;25631;51.516;-0.470;2023-01-30T04:22:01;101926.16;;;6.02;47.59
39954;BME280;25631;51.516;-0.470;2023-01-30T04:24:38;101931.91;;;6.06;47.41
39954;BME280;25631;51.516;-0.470;2023-01-30T04:27:14;101937.05;;;6.19;47.39
39954;BME280;25631;51.516;-0.470;2023-01-30T04:29:51;101936.67;;;5.84;47.58
39954;BME280;25631;51.516;-0.470;2023-01-30T04:32:27;101939.18;;;5.90;47.85
39954;BME280;25631;51.516;-0.470;2023-01-30T04:35:04;101939.78;;;5.97;47.66
39954;BME280;25631;51.516;-0.470;2023-01-30T04:37:41;101929.95;;;5.92;47.67
39954;BME280;25631;51.516;-0.470;2023-01-30T04:40:17;101934.63;;;6.00;47.47
39954;BME280;25631;51.516;-0.470;2023-01-30T04:42:54;101941.46;;;5.89;47.43
39954;BME280;25631;51.516;-0.470;2023-01-30T04:45:31;101943.57;;;5.95;47.33
39954;BME280;25631;51.516;-0.470;2023-01-30T04:48:07;101948.65;;;5.92;47.25
39954;BME280;25631;51.516;-0.470;2023-01-30T04:50:47;101949.67;;;5.98;47.25
39954;BME280;25631;51.516;-0.470;2023-01-30T04:53:24;101953.15;;;5.87;47.19
39954;BME280;25631;51.516;-0.470;2023-01-30T04:56:00;101957.24;;;5.74;47.06
39954;BME280;25631;51.516;-0.470;2023-01-30T04:58:37;101975.16;;;5.84;47.04
39954;BME280;25631;51.516;-0.470;2023-01-30T05:01:15;101978.32;;;6.02;46.84
39954;BME280;25631;51.516;-0.470;2023-01-30T05:03:56;101981.89;;;5.86;46.67
39954;BME280;25631;51.516;-0.470;2023-01-30T05:06:34;101987.75;;;5.71;46.76
39954;BME280;25631;51.516;-0.470;2023-01-30T05:09:11;101990.75;;;5.92;46.62
39954;BME280;25631;51.516;-0.470;2023-01-30T05:11:47;101989.53;;;5.84;46.68
39954;BME280;25631;51.516;-0.470;2023-01-30T05:14:24;101993.10;;;5.89;46.62
39954;BME280;25631;51.516;-0.470;2023-01-30T05:17:06;101992.93;;;5.79;46.52
39954;BME280;25631;51.516;-0.470;2023-01-30T05:19:42;101997.14;;;6.09;46.40
39954;BME280;25631;51.516;-0.470;2023-01-30T05:22:19;101990.32;;;6.06;46.26
39954;BME280;25631;51.516;-0.470;2023-01-30T05:24:55;102006.46;;;6.15;46.23
39954;BME280;25631;51.516;-0.470;2023-01-30T05:27:32;102016.42;;;6.09;46.18
39954;BME280;25631;51.516;-0.470;2023-01-30T05:30:10;102012.79;;;6.23;46.08
39954;BME280;25631;51.516;-0.470;2023-01-30T05:32:46;102018.18;;;6.26;46.10
39954;BME280;25631;51.516;-0.470;2023-01-30T05:35:23;102013.86;;;6.29;46.00
39954;BME280;25631;51.516;-0.470;2023-01-30T05:38:00;102012.10;;;6.29;45.98
39954;BME280;25631;51.516;-0.470;2023-01-30T05:40:36;102005.64;;;6.29;45.99
39954;BME280;25631;51.516;-0.470;2023-01-30T05:43:13;102005.31;;;6.13;45.98
39954;BME280;25631;51.516;-0.470;2023-01-30T05:45:51;102016.54;;;6.42;45.96
39954;BME280;25631;51.516;-0.470;2023-01-30T05:48:28;102023.11;;;6.18;45.95
39954;BME280;25631;51.516;-0.470;2023-01-30T05:51:04;102022.13;;;6.35;45.85
39954;BME280;25631;51.516;-0.470;2023-01-30T05:53:46;102024.86;;;6.13;45.83
39954;BME280;25631;51.516;-0.470;2023-01-30T05:56:23;102030.78;;;6.01;45.77
39954;BME280;25631;51.516;-0.470;2023-01-30T05:59:00;102036.42;;;6.21;45.62
39954;BME280;25631;51.516;-0.470;2023-01-30T06:01:37;102037.65;;;6.04;45.58
39954;BME280;25631;51.516;-0.470;2023-01-30T06:04:13;102038.58;;;6.13;45.52
39954;BME280;25631;51.516;-0.470;2023-01-30T06:06:50;102040.57;;;6.16;45.34
39954;BME280;25631;51.516;-0.470;2023-01-30T06:09:26;102045.37;;;5.98;45.09
39954;BME280;25631;51.516;-0.470;2023-01-30T06:12:03;102042.64;;;6.22;44.84
39954;BME280;25631;51.516;-0.470;2023-01-30T06:14:42;102045.32;;;6.08;44.40
39954;BME280;25631;51.516;-0.470;2023-01-30T06:17:19;102053.73;;;6.15;44.25
39954;BME280;25631;51.516;-0.470;2023-01-30T06:19:55;102053.85;;;6.03;43.89
39954;BME280;25631;51.516;-0.470;2023-01-30T06:22:32;102048.56;;;6.06;43.06
39954;BME280;25631;51.516;-0.470;2023-01-30T06:25:09;102044.36;;;5.14;41.96
39954;BME280;25631;51.516;-0.470;2023-01-30T06:27:46;102051.41;;;5.57;40.68
39954;BME280;25631;51.516;-0.470;2023-01-30T06:30:22;102049.54;;;5.59;39.19
39954;BME280;25631;51.516;-0.470;2023-01-30T06:32:59;102054.84;;;5.43;38.90
39954;BME280;25631;51.516;-0.470;2023-01-30T06:35:42;102063.92;;;5.17;38.19
39954;BME280;25631;51.516;-0.470;2023-01-30T06:38:18;102070.40;;;5.12;38.00
39954;BME280;25631;51.516;-0.470;2023-01-30T06:40:55;102071.67;;;5.08;37.33
39954;BME280;25631;51.516;-0.470;2023-01-30T06:43:32;102071.39;;;4.84;37.15
39954;BME280;25631;51.516;-0.470;2023-01-30T06:46:08;102076.52;;;4.74;36.39
39954;BME280;25631;51.516;-0.470;2023-01-30T06:48:45;102077.32;;;4.82;36.18
39954;BME280;25631;51.516;-0.470;2023-01-30T06:51:22;102087.43;;;5.00;35.74
39954;BME280;25631;51.516;-0.470;2023-01-30T06:53:58;102092.92;;;5.02;35.90
39954;BME280;25631;51.516;-0.470;2023-01-30T06:56:35;102099.66;;;4.75;36.04
39954;BME280;25631;51.516;-0.470;2023-01-30T06:59:12;102101.37;;;5.11;36.02
39954;BME280;25631;51.516;-0.470;2023-01-30T07:01:48;102102.90;;;5.12;36.18
39954;BME280;25631;51.516;-0.470;2023-01-30T07:04:30;102101.23;;;5.40;35.99
39954;BME280;25631;51.516;-0.470;2023-01-30T07:07:08;102113.82;;;4.94;36.01
39954;BME280;25631;51.516;-0.470;2023-01-30T07:09:44;102113.91;;;5.29;36.22
39954;BME280;25631;51.516;-0.470;2023-01-30T07:12:21;102122.97;;;5.06;36.17
39954;BME280;25631;51.516;-0.470;2023-01-30T07:14:58;102126.05;;;5.41;36.25
39954;BME280;25631;51.516;-0.470;2023-01-30T07:17:34;102137.10;;;5.01;36.39
39954;BME280;25631;51.516;-0.470;2023-01-30T07:20:11;102144.77;;;5.42;36.42
39954;BME280;25631;51.516;-0.470;2023-01-30T07:22:49;102148.48;;;5.16;36.24
39954;BME280;25631;51.516;-0.470;2023-01-30T07:25:27;102154.63;;;5.02;35.95
39954;BME280;25631;51.516;-0.470;2023-01-30T07:28:04;102165.51;;;4.53;35.60
39954;BME280;25631;51.516;-0.470;2023-01-30T07:30:41;102165.65;;;5.02;35.53
39954;BME280;25631;51.516;-0.470;2023-01-30T07:33:18;102171.24;;;5.04;35.66
39954;BME280;25631;51.516;-0.470;2023-01-30T07:35:56;102165.92;;;4.49;35.47
39954;BME280;25631;51.516;-0.470;2023-01-30T07:38:32;102171.27;;;4.98;35.40
39954;BME280;25631;51.516;-0.470;2023-01-30T07:41:09;102170.72;;;4.86;35.49
39954;BME280;25631;51.516;-0.470;2023-01-30T07:43:48;102173.19;;;4.68;35.58
39954;BME280;25631;51.516;-0.470;2023-01-30T07:46:24;102185.75;;;4.63;35.72
39954;BME280;25631;51.516;-0.470;2023-01-30T07:49:01;102202.59;;;4.99;35.34
39954;BME280;25631;51.516;-0.470;2023-01-30T07:51:39;102214.79;;;4.84;35.49
39954;BME280;25631;51.516;-0.470;2023-01-30T07:54:15;102214.41;;;4.67;35.61
39954;BME280;25631;51.516;-0.470;2023-01-30T07:56:52;102213.29;;;4.90;35.65
39954;BME280;25631;51.516;-0.470;2023-01-30T07:59:29;102208.22;;;5.10;35.65
39954;BME280;25631;51.516;-0.470;2023-01-30T08:02:08;102204.04;;;4.71;35.50
39954;BME280;25631;51.516;-0.470;2023-01-30T08:04:50;102208.22;;;4.73;35.50
39954;BME280;25631;51.516;-0.470;2023-01-30T08:07:26;102208.03;;;4.82;35.74
39954;BME280;25631;51.516;-0.470;2023-01-30T08:10:04;102206.52;;;4.94;35.64
39954;BME280;25631;51.516;-0.470;2023-01-30T08:12:41;102204.46;;;4.88;35.83
39954;BME280;25631;51.516;-0.470;2023-01-30T08:15:17;102198.05;;;4.65;35.80
39954;BME280;25631;51.516;-0.470;2023-01-30T08:17:55;102203.12;;;4.89;35.76
39954;BME280;25631;51.516;-0.470;2023-01-30T08:20:32;102209.67;;;4.91;35.77
39954;BME280;25631;51.516;-0.470;2023-01-30T08:23:09;102213.60;;;5.07;35.81
39954;BME280;25631;51.516;-0.470;2023-01-30T08:25:45;102219.54;;;4.75;35.63
39954;BME280;25631;51.516;-0.470;2023-01-30T08:28:22;102232.27;;;4.87;35.68
39954;BME280;25631;51.516;-0.470;2023-01-30T08:30:59;102231.87;;;4.84;35.74
39954;BME280;25631;51.516;-0.470;2023-01-30T08:33:36;102234.72;;;4.96;35.90
39954;BME280;25631;51.516;-0.470;2023-01-30T08:36:13;102240.04;;;4.82;35.99
39954;BME280;25631;51.516;-0.470;2023-01-30T08:38:49;102244.32;;;4.61;36.01
39954;BME280;25631;51.516;-0.470;2023-01-30T08:41:26;102244.66;;;4.92;35.98
39954;BME280;25631;51.516;-0.470;2023-01-30T08:44:03;102235.48;;;4.62;36.09
39954;BME280;25631;51.516;-0.470;2023-01-30T08:46:40;102238.71;;;4.69;36.06
39954;BME280;25631;51.516;-0.470;2023-01-30T08:49:17;102236.04;;;4.80;36.12
39954;BME280;25631;51.516;-0.470;2023-01-30T08:51:53;102233.55;;;4.53;36.32
39954;BME280;25631;51.516;-0.470;2023-01-30T08:54:30;102233.12;;;4.20;36.59
39954;BME280;25631;51.516;-0.470;2023-01-30T08:57:09;102237.13;;;4.52;36.64
39954;BME280;25631;51.516;-0.470;2023-01-30T08:59:46;102245.52;;;4.54;36.68
39954;BME280;25631;51.516;-0.470;2023-01-30T09:02:22;102251.56;;;4.70;36.55
39954;BME280;25631;51.516;-0.470;2023-01-30T09:04:59;102249.44;;;4.67;36.64
39954;BME280;25631;51.516;-0.470;2023-01-30T09:07:35;102265.11;;;4.71;36.54
39954;BME280;25631;51.516;-0.470;2023-01-30T09:10:12;102265.74;;;4.81;36.64
39954;BME280;25631;51.516;-0.470;2023-01-30T09:12:49;102256.72;;;4.96;36.62
39954;BME280;25631;51.516;-0.470;2023-01-30T09:15:25;102247.64;;;4.85;36.60
39954;BME280;25631;51.516;-0.470;2023-01-30T09:18:02;102238.51;;;4.90;36.42
39954;BME280;25631;51.516;-0.470;2023-01-30T09:20:39;102230.86;;;4.85;36.51
39954;BME280;25631;51.516;-0.470;2023-01-30T09:23:16;102234.17;;;4.99;36.49
39954;BME280;25631;51.516;-0.470;2023-01-30T09:25:53;102235.94;;;4.90;36.63
39954;BME280;25631;51.516;-0.470;2023-01-30T09:28:29;102235.91;;;5.00;36.56
39954;BME280;25631;51.516;-0.470;2023-01-30T09:31:06;102243.35;;;4.51;36.63
39954;BME280;25631;51.516;-0.470;2023-01-30T09:33:42;102243.98;;;4.73;36.86
39954;BME280;25631;51.516;-0.470;2023-01-30T09:36:19;102238.85;;;4.59;36.66
39954;BME280;25631;51.516;-0.470;2023-01-30T09:38:55;102241.66;;;4.71;36.69
39954;BME280;25631;51.516;-0.470;2023-01-30T09:41:46;102253.08;;;4.52;36.64
39954;BME280;25631;51.516;-0.470;2023-01-30T09:45:25;102267.35;;;4.88;36.59
39954;BME280;25631;51.516;-0.470;2023-01-30T09:48:11;102275.45;;;4.77;36.52
39954;BME280;25631;51.516;-0.470;2023-01-30T09:51:03;102276.66;;;5.04;36.51
39954;BME280;25631;51.516;-0.470;2023-01-30T09:53:58;102273.04;;;5.04;36.40
39954;BME280;25631;51.516;-0.470;2023-01-30T09:56:38;102271.56;;;4.79;36.16
39954;BME280;25631;51.516;-0.470;2023-01-30T09:59:20;102272.20;;;5.35;36.15
39954;BME280;25631;51.516;-0.470;2023-01-30T10:02:11;102275.39;;;5.03;36.03
39954;BME280;25631;51.516;-0.470;2023-01-30T10:04:50;102274.52;;;4.81;35.78
39954;BME280;25631;51.516;-0.470;2023-01-30T10:07:36;102286.04;;;4.98;35.67
39954;BME280;25631;51.516;-0.470;2023-01-30T10:10:19;102293.97;;;5.06;35.71
39954;BME280;25631;51.516;-0.470;2023-01-30T10:13:05;102292.67;;;5.27;35.56
39954;BME280;25631;51.516;-0.470;2023-01-30T10:15:52;102292.14;;;4.96;35.58
39954;BME280;25631;51.516;-0.470;2023-01-30T10:18:45;102294.69;;;4.97;35.35
39954;BME280;25631;51.516;-0.470;2023-01-30T10:21:35;102293.24;;;5.01;35.09
39954;BME280;25631;51.516;-0.470;2023-01-30T10:24:28;102294.93;;;5.44;35.27
39954;BME280;25631;51.516;-0.470;2023-01-30T10:27:10;102290.46;;;5.24;35.01
39954;BME280;25631;51.516;-0.470;2023-01-30T10:29:53;102287.38;;;5.25;35.18
39954;BME280;25631;51.516;-0.470;2023-01-30T10:32:34;102289.56;;;5.07;34.74
39954;BME280;25631;51.516;-0.470;2023-01-30T10:35:18;102297.26;;;5.32;34.71
39954;BME280;25631;51.516;-0.470;2023-01-30T10:38:01;102297.07;;;5.61;34.68
39954;BME280;25631;51.516;-0.470;2023-01-30T10:40:43;102300.29;;;5.55;34.39
39954;BME280;25631;51.516;-0.470;2023-01-30T10:43:27;102286.83;;;5.70;34.40
39954;BME280;25631;51.516;-0.470;2023-01-30T10:46:18;102292.22;;;5.74;34.48
39954;BME280;25631;51.516;-0.470;2023-01-30T10:48:59;102299.86;;;5.33;34.04
39954;BME280;25631;51.516;-0.470;2023-01-30T10:51:45;102308.17;;;5.48;33.99
39954;BME280;25631;51.516;-0.470;2023-01-30T10:54:26;102311.85;;;5.80;33.85
39954;BME280;25631;51.516;-0.470;2023-01-30T10:57:12;102314.93;;;5.68;33.72
39954;BME280;25631;51.516;-0.470;2023-01-30T10:59:56;102313.86;;;5.69;33.62
39954;BME280;25631;51.516;-0.470;2023-01-30T11:02:39;102312.34;;;5.49;33.60
39954;BME280;25631;51.516;-0.470;2023-01-30T11:05:23;102319.30;;;5.09;33.43
39954;BME280;25631;51.516;-0.470;2023-01-30T11:08:01;102323.16;;;5.54;33.53
39954;BME280;25631;51.516;-0.470;2023-01-30T11:10:38;102318.78;;;5.77;33.75
39954;BME280;25631;51.516;-0.470;2023-01-30T11:13:17;102312.54;;;5.60;33.78
39954;BME280;25631;51.516;-0.470;2023-01-30T11:15:56;102312.29;;;5.90;33.67
39954;BME280;25631;51.516;-0.470;2023-01-30T11:18:43;102315.38;;;5.72;33.45
39954;BME280;25631;51.516;-0.470;2023-01-30T11:21:26;102336.21;;;5.90;33.44
39954;BME280;25631;51.516;-0.470;2023-01-30T11:24:10;102342.18;;;5.65;33.26
39954;BME280;25631;51.516;-0.470;2023-01-30T11:26:48;102352.89;;;5.99;33.22
39954;BME280;25631;51.516;-0.470;2023-01-30T11:29:28;102347.65;;;6.22;32.89
39954;BME280;25631;51.516;-0.470;2023-01-30T11:32:10;102344.68;;;6.18;33.24
39954;BME280;25631;51.516;-0.470;2023-01-30T11:35:02;102334.47;;;6.20;33.28
39954;BME280;25631;51.516;-0.470;2023-01-30T11:37:40;102326.27;;;5.90;33.14
39954;BME280;25631;51.516;-0.470;2023-01-30T11:40:23;102321.02;;;6.17;33.29
39954;BME280;25631;51.516;-0.470;2023-01-30T11:43:04;102317.08;;;6.61;32.65
39954;BME280;25631;51.516;-0.470;2023-01-30T11:45:44;102317.20;;;6.20;32.78
39954;BME280;25631;51.516;-0.470;2023-01-30T11:48:26;102314.05;;;6.20;33.01
39954;BME280;25631;51.516;-0.470;2023-01-30T11:51:05;102320.15;;;5.62;32.92
39954;BME280;25631;51.516;-0.470;2023-01-30T11:53:44;102317.89;;;6.16;32.79
39954;BME280;25631;51.516;-0.470;2023-01-30T11:56:26;102326.79;;;6.27;33.05
39954;BME280;25631;51.516;-0.470;2023-01-30T11:59:13;102331.93;;;6.40;32.90
39954;BME280;25631;51.516;-0.470;2023-01-30T12:02:03;102332.94;;;6.26;32.66
39954;BME280;25631;51.516;-0.470;2023-01-30T12:04:42;102323.04;;;6.25;32.50
39954;BME280;25631;51.516;-0.470;2023-01-30T12:07:21;102319.40;;;6.66;32.44
39954;BME280;25631;51.516;-0.470;2023-01-30T12:09:59;102328.48;;;6.74;32.71
39954;BME280;25631;51.516;-0.470;2023-01-30T12:12:42;102326.87;;;6.61;32.67
39954;BME280;25631;51.516;-0.470;2023-01-30T12:15:23;102333.32;;;6.57;32.46
39954;BME280;25631;51.516;-0.470;2023-01-30T12:18:08;102330.30;;;6.69;32.35
39954;BME280;25631;51.516;-0.470;2023-01-30T12:20:52;102330.32;;;6.77;32.64
39954;BME280;25631;51.516;-0.470;2023-01-30T12:23:37;102337.29;;;6.78;32.69
39954;BME280;25631;51.516;-0.470;2023-01-30T12:26:19;102343.20;;;6.72;32.70
39954;BME280;25631;51.516;-0.470;2023-01-30T12:29:02;102334.97;;;6.88;32.55
39954;BME280;25631;51.516;-0.470;2023-01-30T12:31:44;102342.48;;;6.81;32.24
39954;BME280;25631;51.516;-0.470;2023-01-30T12:34:22;102350.98;;;6.79;32.52
39954;BME280;25631;51.516;-0.470;2023-01-30T12:37:07;102355.19;;;6.92;32.63
39954;BME280;25631;51.516;-0.470;2023-01-30T12:39:56;102355.77;;;7.36;32.16
39954;BME280;25631;51.516;-0.470;2023-01-30T12:42:56;102341.00;;;7.27;32.13
39954;BME280;25631;51.516;-0.470;2023-01-30T12:45:40;102341.16;;;7.09;32.46
39954;BME280;25631;51.516;-0.470;2023-01-30T12:48:48;102350.43;;;7.12;32.38
39954;BME280;25631;51.516;-0.470;2023-01-30T12:51:39;102350.51;;;6.94;32.42
39954;BME280;25631;51.516;-0.470;2023-01-30T12:54:33;102336.51;;;7.12;32.74
39954;BME280;25631;51.516;-0.470;2023-01-30T12:57:23;102329.36;;;7.22;32.37
39954;BME280;25631;51.516;-0.470;2023-01-30T13:00:16;102332.03;;;7.32;32.50
39954;BME280;25631;51.516;-0.470;2023-01-30T13:03:17;102330.21;;;7.01;32.55
39954;BME280;25631;51.516;-0.470;2023-01-30T13:06:06;102326.67;;;7.31;32.50
39954;BME280;25631;51.516;-0.470;2023-01-30T13:08:54;102327.19;;;7.37;32.45
39954;BME280;25631;51.516;-0.470;2023-01-30T13:11:42;102321.10;;;7.32;32.90
39954;BME280;25631;51.516;-0.470;2023-01-30T13:14:26;102319.20;;;7.26;32.60
39954;BME280;25631;51.516;-0.470;2023-01-30T13:17:21;102317.96;;;7.57;32.38
39954;BME280;25631;51.516;-0.470;2023-01-30T13:20:07;102311.92;;;7.37;32.12
39954;BME280;25631;51.516;-0.470;2023-01-30T13:22:55;102298.65;;;7.79;32.01
39954;BME280;25631;51.516;-0.470;2023-01-30T13:25:44;102303.89;;;7.97;31.76
39954;BME280;25631;51.516;-0.470;2023-01-30T13:28:25;102310.24;;;8.16;31.24
39954;BME280;25631;51.516;-0.470;2023-01-30T13:31:05;102321.52;;;8.42;31.17
39954;BME280;25631;51.516;-0.470;2023-01-30T13:33:45;102325.04;;;8.47;30.68
39954;BME280;25631;51.516;-0.470;2023-01-30T13:36:26;102327.46;;;8.57;30.26
39954;BME280;25631;51.516;-0.470;2023-01-30T13:39:09;102327.34;;;8.69;30.27
39954;BME280;25631;51.516;-0.470;2023-01-30T13:41:51;102321.84;;;8.66;30.55
39954;BME280;25631;51.516;-0.470;2023-01-30T13:44:39;102322.67;;;8.63;30.53
39954;BME280;25631;51.516;-0.470;2023-01-30T13:47:26;102312.41;;;8.45;30.25
39954;BME280;25631;51.516;-0.470;2023-01-30T13:50:37;102317.28;;;8.73;30.50
39954;BME280;25631;51.516;-0.470;2023-01-30T13:53:21;102323.59;;;8.87;29.83
39954;BME280;25631;51.516;-0.470;2023-01-30T13:56:06;102335.67;;;8.51;30.12
39954;BME280;25631;51.516;-0.470;2023-01-30T13:58:53;102333.00;;;8.45;30.03
39954;BME280;25631;51.516;-0.470;2023-01-30T14:02:22;102327.03;;;8.44;29.87